Avoca, Illinois
Current Conditions -  °F | °C
As of 4:15 AM on Thursday 29 Jan 2015 (Local Time) from KPNT Reporting Station
Clear Clear  
Wind Chill:   Ceiling: Unl
Heat Index:   Visibility: 10mi
Dew Point:   Wind: 3mph
Humidity: 88%   Direction: 180°S
Pressure: 29.69"   Gusts: NA
Location:  40.7318°N, 88.524°W
Report Text: KPNT 291015Z AUTO 18003KT 10SM CLR 02/00 A2969 RMK AO2 T00200002
Loading
Personal Weather Stations






























Interactive Weather Map New forecast layout! Learn more

10-Day Weather Forecast

Advertisements
Track Severe Weather on mobile